| time (UTC) | temp F | wind direction | speed MPH | gust MPH | rain 1hr in | rain 24hr in | rain mn in | humidity % | barometer mb |
| 20260504231539 | 54 | 0.0 | 0.0 | 0.00 | 0.00 | 0.00 | 88 | 1013.3 | |
| 20260504230519 | 55 | 0.0 | 0.0 | 0.00 | 0.00 | 0.00 | 88 | 1013.2 | |
| 20260504225519 | 55 | 0.0 | 0.0 | 0.00 | 0.00 | 0.00 | 89 | 1013.3 | |
| 20260504224519 | 55 | 0.0 | 0.0 | 0.00 | 0.00 | 0.00 | 88 | 1013.4 | |
| 20260504223548 | 55 | 0.0 | 0.0 | 0.00 | 0.00 | 0.00 | 89 | 1013.3 | |
| 20260504222519 | 55 | 0.0 | 0.0 | 0.00 | 0.00 | 0.00 | 89 | 1013.4 | |
| 20260504221518 | 55 | 0.0 | 0.0 | 0.00 | 0.00 | 0.00 | 88 | 1013.4 | |
| 20260504220519 | 55 | 0.0 | 0.0 | 0.00 | 0.00 | 0.00 | 89 | 1013.6 | |
| 20260504215519 | 56 | 0.0 | 0.0 | 0.00 | 0.00 | 0.00 | 89 | 1013.6 | |
| 20260504214519 | 56 | 0.0 | 0.0 | 0.00 | 0.00 | 0.00 | 89 | 1013.7 | |
| 20260504213519 | 56 | 0.0 | 0.0 | 0.00 | 0.00 | 0.00 | 89 | 1013.7 | |
| 20260504212519 | 56 | 0.0 | 0.0 | 0.00 | 0.00 | 0.00 | 89 | 1013.8 | |
| 20260504211519 | 56 | 0.0 | 0.0 | 0.00 | 0.00 | 0.00 | 89 | 1014.0 | |
| 20260504210519 | 56 | 0.0 | 0.0 | 0.00 | 0.00 | 0.00 | 88 | 1013.8 | |
| 20260504205519 | 57 | 0.0 | 0.0 | 0.00 | 0.00 | 0.00 | 88 | 1013.8 | |
| 20260504204518 | 57 | 0.0 | 0.0 | 0.00 | 0.00 | 0.00 | 89 | 1013.8 | |
| 20260504203518 | 57 | 0.0 | 0.0 | 0.00 | 0.00 | 0.00 | 90 | 1013.7 | |
| 20260504202519 | 57 | 0.0 | 0.0 | 0.00 | 0.00 | 0.00 | 89 | 1013.8 | |
| 20260504201519 | 57 | 0.0 | 0.0 | 0.00 | 0.00 | 0.00 | 89 | 1013.6 | |
| 20260504200539 | 57 | 0.0 | 0.0 | 0.00 | 0.00 | 0.00 | 88 | 1013.6 | |
| 20260504195518 | 57 | 0.0 | 0.0 | 0.00 | 0.00 | 0.00 | 88 | 1013.6 | |
| 20260504194519 | 58 | 0.0 | 0.0 | 0.00 | 0.00 | 0.00 | 88 | 1013.4 | |
| 20260504193518 | 58 | 0.0 | 0.0 | 0.00 | 0.00 | 0.00 | 88 | 1013.4 | |
| 20260504192519 | 58 | 0.0 | 0.0 | 0.00 | 0.00 | 0.00 | 88 | 1013.3 | |
| 20260504191539 | 58 | 0.0 | 0.0 | 0.00 | 0.00 | 0.00 | 88 | 1013.2 | |
| 20260504190533 | 58 | 0.0 | 0.0 | 0.00 | 0.00 | 0.00 | 88 | 1013.3 | |
| 20260504185524 | 58 | 0.0 | 0.0 | 0.00 | 0.00 | 0.00 | 88 | 1013.2 | |
| 20260504184542 | 59 | 0.0 | 0.0 | 0.00 | 0.00 | 0.00 | 87 | 1013.2 | |
| 20260504183547 | 59 | 0.0 | 0.0 | 0.00 | 0.00 | 0.00 | 87 | 1013.0 | |
| 20260504182535 | 59 | 0.0 | 0.0 | 0.00 | 0.00 | 0.00 | 86 | 1013.0 | |
| 20260504181536 | 59 | 0.0 | 0.0 | 0.00 | 0.00 | 0.00 | 87 | 1013.1 | |
| 20260504180539 | 59 | 0.0 | 0.0 | 0.00 | 0.00 | 0.00 | 86 | 1013.0 | |
| 20260504175555 | 60 | 0.0 | 0.0 | 0.00 | 0.00 | 0.00 | 85 | 1013.0 | |
| 20260504174518 | 60 | 0.0 | 0.0 | 0.00 | 0.00 | 0.00 | 84 | 1013.0 | |
| 20260504173531 | 60 | 0.0 | 0.0 | 0.00 | 0.00 | 0.00 | 83 | 1013.1 | |
| 20260504172539 | 61 | 0.0 | 0.0 | 0.00 | 0.00 | 0.00 | 83 | 1013.0 | |
| 20260504171539 | 61 | 0.0 | 0.0 | 0.00 | 0.00 | 0.00 | 83 | 1012.9 | |
| 20260504170542 | 61 | 0.0 | 0.0 | 0.00 | 0.00 | 0.00 | 83 | 1012.9 | |
| 20260504150518 | 66 | 0.0 | 0.0 | 0.00 | 0.00 | 0.00 | 77 | 1012.8 | |
| 20260504140518 | 67 | 0.0 | 0.0 | 0.00 | 0.00 | 0.00 | 72 | 1012.9 | |
| 20260504130518 | 67 | 0.0 | 0.0 | 0.00 | 0.00 | 0.00 | 78 | 1013.1 | |
| 20260504110518 | 67 | 0.0 | 0.0 | 0.00 | 0.00 | 0.00 | 100 | 1013.6 | |
| 20260504100538 | 66 | 0.0 | 0.0 | 0.00 | 0.00 | 0.00 | 100 | 1013.8 | |
| 20260504081519 | 63 | 0.0 | 0.0 | 0.00 | 0.00 | 0.00 | 100 | 1013.5 | |
| 20260504080519 | 62 | 0.0 | 0.0 | 0.00 | 0.00 | 0.00 | 100 | 1013.4 | |
| 20260504050519 | 57 | 0.0 | 0.0 | 0.00 | 0.00 | 0.00 | 100 | ||
| 20260504045518 | 57 | 0.0 | 0.0 | 0.00 | 0.00 | 0.00 | 100 | ||
| 20260504044519 | 56 | 0.0 | 0.0 | 0.00 | 0.00 | 0.00 | 100 | ||
| 20260504043533 | 56 | 0.0 | 0.0 | 0.00 | 0.00 | 0.00 | 100 | ||
| 20260504042519 | 56 | 0.0 | 0.0 | 0.00 | 0.00 | 0.00 | 100 | ||
| 20260504041543 | 56 | 0.0 | 0.0 | 0.00 | 0.00 | 0.00 | 100 | ||
| 20260504040518 | 56 | 0.0 | 0.0 | 0.00 | 0.00 | 0.00 | 100 | ||
| 20260504035544 | 55 | 0.0 | 0.0 | 0.00 | 0.00 | 0.00 | 100 | ||
| 20260504034539 | 55 | 0.0 | 0.0 | 0.00 | 0.00 | 0.00 | 100 | ||
| 20260504033530 | 56 | 0.0 | 0.0 | 0.00 | 0.00 | 0.00 | 100 | ||
| 20260504032519 | 56 | 0.0 | 0.0 | 0.00 | 0.00 | 0.00 | 100 | ||
| 20260504031542 | 55 | 0.0 | 0.0 | 0.00 | 0.00 | 0.00 | 100 | ||
| 20260504030519 | 55 | 0.0 | 0.0 | 0.00 | 0.00 | 0.00 | 100 | ||
| 20260504025519 | 55 | 0.0 | 0.0 | 0.00 | 0.00 | 0.00 | 100 | ||
| 20260504024519 | 55 | 0.0 | 0.0 | 0.00 | 0.00 | 0.00 | 100 | ||
| 20260504023650 | 55 | 0.0 | 0.0 | 0.00 | 0.00 | 0.00 | 100 | ||
| 20260504022519 | 55 | 0.0 | 0.0 | 0.00 | 0.00 | 0.00 | 100 | ||
| 20260504021535 | 55 | 0.0 | 0.0 | 0.00 | 0.00 | 0.00 | 100 | ||
| 20260504020538 | 56 | 0.0 | 0.0 | 0.00 | 0.00 | 0.00 | 100 | ||
| 20260504015531 | 56 | 0.0 | 0.0 | 0.00 | 0.00 | 0.00 | 100 | ||
| 20260504014519 | 56 | 0.0 | 0.0 | 0.00 | 0.00 | 0.00 | 100 | ||
| 20260504013519 | 57 | 0.0 | 0.0 | 0.00 | 0.00 | 0.00 | 100 | ||
| 20260504012519 | 57 | 0.0 | 0.0 | 0.00 | 0.00 | 0.00 | 100 | ||
| 20260504011518 | 57 | 0.0 | 0.0 | 0.00 | 0.00 | 0.00 | 100 | ||
| 20260504010539 | 58 | 0.0 | 0.0 | 0.00 | 0.00 | 0.00 | 100 | ||
| 20260504005547 | 58 | 0.0 | 0.0 | 0.00 | 0.00 | 0.00 | 100 | ||
| 20260504004519 | 58 | 0.0 | 0.0 | 0.00 | 0.00 | 0.00 | 100 | ||
| 20260504003519 | 58 | 0.0 | 0.0 | 0.00 | 0.00 | 0.00 | 100 | ||
| 20260504002519 | 58 | 0.0 | 0.0 | 0.00 | 0.00 | 0.00 | 100 | ||
| 20260504001541 | 59 | 0.0 | 0.0 | 0.00 | 0.00 | 0.00 | 100 | ||
| 20260504000519 | 59 | 0.0 | 0.0 | 0.00 | 0.00 | 0.00 | 100 | ||
| 20260503235519 | 59 | 0.0 | 0.0 | 0.00 | 0.00 | 0.00 | 100 | ||
| 20260503234518 | 59 | 0.0 | 0.0 | 0.00 | 0.00 | 0.00 | 100 | ||
| 20260503233528 | 59 | 0.0 | 0.0 | 0.00 | 0.00 | 0.00 | 100 | ||
| 20260503232519 | 59 | 0.0 | 0.0 | 0.00 | 0.00 | 0.00 | 100 |